Time;durP1;ratioP1;P1;durP2;ratioP2;P2;SDS_P1;SDS_P2;PMS_P1;PMS_P2;Temp;Humidity;BMP_temperature;BMP_pressure;BME280_temperature;BME280_humidity;BME280_pressure;Samples;Min_cycle;Max_cycle;Signal;HPM_P1;HPM_P2
2021/06/08 00:44:28;;;;;;;7.45;3.80;;;;;;;22.59;59.77;100978.22;146695;585;46017;-68
2021/06/08 00:47:00;;;;;;;9.43;3.70;;;;;;;22.57;60.23;100977.47;146693;579;46010;-68
2021/06/08 00:49:31;;;;;;;7.28;3.83;;;;;;;22.50;60.29;100977.09;146688;604;46016;-67
2021/06/08 00:52:03;;;;;;;8.85;4.12;;;;;;;22.47;60.33;100975.50;146693;659;46021;-67
2021/06/08 00:54:34;;;;;;;9.75;3.67;;;;;;;22.46;60.26;100979.13;146689;569;46016;-66
2021/06/08 00:57:06;;;;;;;8.75;3.80;;;;;;;22.45;60.28;100980.09;146690;571;46010;-65
2021/06/08 00:59:38;;;;;;;7.75;3.58;;;;;;;22.47;60.37;100977.28;146689;578;46014;-65
2021/06/08 01:02:10;;;;;;;10.77;3.85;;;;;;;22.46;60.17;100979.13;146691;590;46907;-65
2021/06/08 01:04:41;;;;;;;10.35;3.70;;;;;;;22.45;59.85;100977.41;146687;614;46018;-66
2021/06/08 01:07:11;;;;;;;6.70;3.60;;;;;;;;;;146692;651;46012;-66
2021/06/08 01:09:42;;;;;;;8.70;3.42;;;;;;;22.41;60.19;100965.22;146690;583;46016;-66
2021/06/08 01:12:13;;;;;;;9.48;3.55;;;;;;;22.42;60.01;100966.94;146690;597;46010;-65
2021/06/08 01:14:43;;;;;;;7.22;3.65;;;;;;;22.42;59.79;100964.25;146690;585;46013;-68
2021/06/08 01:17:14;;;;;;;11.63;4.03;;;;;;;22.42;59.65;100964.25;146693;577;46018;-69
2021/06/08 01:19:46;;;;;;;7.55;3.50;;;;;;;22.42;59.49;100958.91;146687;574;47020;-66
2021/06/08 01:22:17;;;;;;;7.60;3.47;;;;;;;22.43;59.42;100957.09;146691;580;46018;-65
2021/06/08 01:24:48;;;;;;;8.63;3.85;;;;;;;22.35;59.41;100946.97;146687;673;47018;-64
2021/06/08 01:27:21;;;;;;;7.55;3.60;;;;;;;22.31;59.26;100945.47;146693;564;46019;-64
2021/06/08 01:29:54;;;;;;;6.27;3.50;;;;;;;22.28;59.15;100948.34;146689;593;46021;-64
2021/06/08 01:32:29;;;;;;;7.32;3.58;;;;;;;22.31;59.56;100943.62;146692;618;46018;-65
2021/06/08 01:35:00;;;;;;;11.05;4.00;;;;;;;22.35;59.31;100943.41;146689;664;46012;-64
2021/06/08 01:37:31;;;;;;;8.00;3.90;;;;;;;22.34;59.23;100947.94;146692;597;46018;-63
2021/06/08 01:40:02;;;;;;;9.55;3.87;;;;;;;22.32;59.33;100947.16;146687;584;46016;-64
2021/06/08 01:42:33;;;;;;;9.15;3.92;;;;;;;22.31;59.10;100948.97;146696;571;46019;-63
2021/06/08 01:45:05;;;;;;;9.88;3.58;;;;;;;22.31;59.75;100953.47;146687;581;46019;-65
2021/06/08 01:47:36;;;;;;;8.88;3.70;;;;;;;22.35;59.43;100944.28;146696;589;46018;-65
2021/06/08 01:50:07;;;;;;;13.38;4.00;;;;;;;22.35;59.03;100944.28;146687;612;46020;-64
2021/06/08 01:53:27;;;;;;;9.73;3.72;;;;;;;22.20;59.49;100932.88;146692;649;46010;-64
2021/06/08 01:56:12;;;;;;;8.05;4.03;;;;;;;22.30;59.30;100941.06;146688;632;46012;-64
2021/06/08 01:59:38;;;;;;;10.50;4.18;;;;;;;22.24;58.95;100938.84;146696;629;46019;-64
2021/06/08 02:02:30;;;;;;;8.43;3.95;;;;;;;22.34;59.20;100949.72;146689;620;46012;-65
2021/06/08 02:05:28;;;;;;;13.10;4.45;;;;;;;22.32;59.78;100952.50;146691;576;46011;-64
2021/06/08 02:08:47;;;;;;;8.00;4.22;;;;;;;22.23;59.67;100943.34;146688;580;46012;-64
2021/06/08 02:12:17;;;;;;;7.97;4.00;;;;;;;22.21;59.99;100952.44;146690;676;46018;-66
2021/06/08 02:15:14;;;;;;;7.70;4.10;;;;;;;22.16;59.79;100939.41;146689;564;47019;-66
2021/06/08 02:17:50;;;;;;;10.18;4.25;;;;;;;22.17;60.28;100942.94;146688;563;46027;-66
2021/06/08 02:20:30;;;;;;;9.75;4.10;;;;;;;22.12;60.05;100938.78;146688;570;46018;-66
2021/06/08 02:23:11;;;;;;;11.00;4.22;;;;;;;22.07;60.43;100934.75;146694;665;46026;-66
2021/06/08 02:25:45;;;;;;;7.90;3.72;;;;;;;22.06;60.38;100938.37;146691;607;46012;-66
2021/06/08 02:28:16;;;;;;;10.57;4.43;;;;;;;22.02;60.52;100948.44;146693;659;46019;-66
2021/06/08 02:30:48;;;;;;;11.00;3.80;;;;;;;22.02;60.22;100939.56;146689;656;47012;-66
2021/06/08 02:33:20;;;;;;;9.63;3.75;;;;;;;22.02;60.63;100937.75;146692;651;46018;-65
2021/06/08 02:35:52;;;;;;;9.95;3.95;;;;;;;22.04;60.12;100943.84;146690;638;46014;-65
2021/06/08 02:38:24;;;;;;;10.15;3.60;;;;;;;22.03;60.49;100949.28;146693;582;46010;-66
2021/06/08 02:40:55;;;;;;;12.88;4.37;;;;;;;22.01;60.19;100945.87;146688;581;46016;-65
2021/06/08 02:43:27;;;;;;;7.95;3.80;;;;;;;22.02;60.54;100950.25;146690;582;46011;-65
2021/06/08 02:45:59;;;;;;;10.85;4.22;;;;;;;22.02;60.49;100953.81;146688;571;46021;-65
2021/06/08 02:48:31;;;;;;;14.60;4.40;;;;;;;21.98;60.73;100949.63;146690;583;46010;-65
2021/06/08 02:51:02;;;;;;;8.90;4.25;;;;;;;21.97;60.29;100947.94;146688;569;46020;-66
2021/06/08 02:53:35;;;;;;;10.27;4.60;;;;;;;22.00;60.87;100955.72;146691;579;46018;-66
2021/06/08 02:56:07;;;;;;;10.73;4.93;;;;;;;22.01;60.83;100962.78;146687;569;47012;-65
2021/06/08 02:58:38;;;;;;;11.52;4.65;;;;;;;21.92;60.55;100937.53;146695;675;46019;-67
2021/06/08 03:01:15;;;;;;;9.77;4.78;;;;;;;22.00;60.87;100954.88;146687;564;47012;-66
2021/06/08 03:03:51;;;;;;;12.48;5.18;;;;;;;21.94;61.20;100961.53;146692;569;46018;-67
2021/06/08 03:06:28;;;;;;;10.20;5.07;;;;;;;21.91;61.26;100953.69;146689;626;46019;-67
2021/06/08 03:09:13;;;;;;;12.75;5.22;;;;;;;21.86;61.28;100962.06;146691;643;45043;-65
2021/06/08 03:11:51;;;;;;;12.23;5.22;;;;;;;21.87;61.02;100962.91;146690;631;46017;-66
2021/06/08 03:14:23;;;;;;;11.25;5.05;;;;;;;21.90;61.28;100971.56;146694;584;46010;-66
2021/06/08 03:16:58;;;;;;;12.45;5.20;;;;;;;21.91;61.43;100970.62;146689;570;46012;-66
2021/06/08 03:19:34;;;;;;;10.25;4.80;;;;;;;21.93;61.26;100971.34;146693;593;46010;-67
2021/06/08 03:22:12;;;;;;;12.63;5.10;;;;;;;21.91;61.22;100975.09;146688;599;46019;-66
2021/06/08 03:24:47;;;;;;;10.35;4.53;;;;;;;21.92;61.38;100972.28;146692;587;46010;-65
2021/06/08 03:27:19;;;;;;;11.02;4.60;;;;;;;21.93;61.49;100973.16;146688;571;46020;-66
2021/06/08 03:29:50;;;;;;;11.02;4.78;;;;;;;21.92;61.31;100974.97;146690;588;46010;-66
2021/06/08 03:32:21;;;;;;;12.68;4.80;;;;;;;21.94;62.01;100977.56;146689;662;46018;-67
2021/06/08 03:34:52;;;;;;;10.70;4.57;;;;;;;21.94;61.73;100974.88;146691;613;46019;-67
2021/06/08 03:37:25;;;;;;;10.07;4.72;;;;;;;21.98;62.32;100971.03;146695;670;46018;-65
2021/06/08 03:39:56;;;;;;;8.20;4.70;;;;;;;22.00;62.00;100970.91;146693;659;46018;-64
2021/06/08 03:42:27;;;;;;;11.50;4.62;;;;;;;21.96;62.38;100970.28;146690;574;46017;-64
2021/06/08 03:44:59;;;;;;;9.48;4.60;;;;;;;21.98;62.95;100973.69;146692;583;46010;-64
2021/06/08 03:47:30;;;;;;;8.10;4.85;;;;;;;21.98;62.52;100974.53;146690;640;46016;-66
2021/06/08 03:50:01;;;;;;;9.40;4.82;;;;;;;22.02;63.13;100982.34;146691;570;46027;-65
2021/06/08 03:52:32;;;;;;;11.77;4.90;;;;;;;22.07;63.05;100972.16;146690;573;46020;-64
2021/06/08 03:55:05;;;;;;;10.63;4.50;;;;;;;22.11;62.69;100974.50;146694;585;46018;-64
2021/06/08 03:57:39;;;;;;;15.07;11.20;;;;;;;22.17;62.95;100975.03;146690;600;46019;-64
2021/06/08 04:00:11;;;;;;;12.57;5.70;;;;;;;22.20;63.06;100983.69;146691;576;46018;-66
2021/06/08 04:02:43;;;;;;;12.37;4.90;;;;;;;22.23;62.91;100983.44;146691;616;46014;-66
2021/06/08 04:05:15;;;;;;;9.60;4.90;;;;;;;22.25;62.66;100983.34;146691;596;46019;-65
2021/06/08 04:07:48;;;;;;;12.95;5.03;;;;;;;22.29;63.05;100982.16;146689;591;46012;-66
2021/06/08 04:10:21;;;;;;;10.20;5.05;;;;;;;22.30;63.11;100981.19;146692;647;46018;-66
2021/06/08 04:12:57;;;;;;;13.00;4.85;;;;;;;22.33;63.18;100980.13;146689;681;46908;-65
2021/06/08 04:15:30;;;;;;;10.00;5.10;;;;;;;22.31;62.68;100975.72;146692;593;46010;-65
2021/06/08 04:18:02;;;;;;;12.25;4.95;;;;;;;22.33;62.75;100982.78;146689;662;46018;-65
2021/06/08 04:20:33;;;;;;;11.23;4.68;;;;;;;22.33;62.93;100983.63;146691;582;46010;-65
2021/06/08 04:23:04;;;;;;;8.82;4.37;;;;;;;22.34;62.79;100985.38;146690;630;46012;-66
2021/06/08 04:25:34;;;;;;;11.02;4.80;;;;;;;22.36;62.94;100985.25;146690;573;46018;-65
2021/06/08 04:28:05;;;;;;;9.75;4.80;;;;;;;22.37;62.71;100992.31;146690;571;46019;-65
2021/06/08 04:30:36;;;;;;;14.70;4.72;;;;;;;22.41;62.85;100991.97;146693;565;46010;-64
2021/06/08 04:33:07;;;;;;;10.27;4.90;;;;;;;22.48;62.90;100990.56;146690;564;46018;-65
2021/06/08 04:35:39;;;;;;;13.75;5.00;;;;;;;22.58;62.92;100989.87;146691;578;46019;-65
2021/06/08 04:38:09;;;;;;;10.48;4.53;;;;;;;22.67;62.94;100991.88;146688;636;46012;-67
2021/06/08 04:40:43;;;;;;;8.32;4.87;;;;;;;22.75;62.32;100994.81;146694;600;46010;-66
2021/06/08 04:43:13;;;;;;;;;;;;;;;22.82;62.18;100996.06;146695;979;46019;-67
2021/06/08 04:45:44;;;;;;;11.10;5.53;;;;;;;22.91;62.19;100999.00;146697;570;46018;-68
2021/06/08 04:48:15;;;;;;;14.15;4.95;;;;;;;22.94;62.19;100996.97;146688;639;46022;-67
2021/06/08 04:50:46;;;;;;;8.20;5.05;;;;;;;22.96;62.23;101004.88;146694;593;46018;-67
2021/06/08 04:53:17;;;;;;;16.27;5.57;;;;;;;23.02;62.41;100998.19;146689;592;46022;-67
2021/06/08 04:55:48;;;;;;;13.10;6.25;;;;;;;23.10;62.16;101003.81;146692;586;46018;-69
2021/06/08 04:58:20;;;;;;;19.30;6.45;;;;;;;23.12;62.40;101005.44;146689;572;46019;-69
2021/06/08 05:01:36;;;;;;;10.75;5.90;;;;;;;23.09;62.18;101002.13;146690;602;47008;-68
2021/06/08 05:04:11;;;;;;;13.60;6.18;;;;;;;23.25;62.08;101023.25;146688;576;46018;-70
2021/06/08 05:06:55;;;;;;;12.15;6.60;;;;;;;23.26;62.21;101015.09;146691;564;46018;-69
2021/06/08 05:09:31;;;;;;;;;;;;;;;23.30;62.28;101024.59;146694;962;46018;-68
2021/06/08 05:12:05;;;;;;;21.05;6.87;;;;;;;23.35;62.04;101026.06;146698;573;46011;-69
2021/06/08 05:14:39;;;;;;;11.90;6.43;;;;;;;23.38;61.88;101024.03;146689;565;46018;-68
2021/06/08 05:17:11;;;;;;;13.15;6.50;;;;;;;23.43;62.25;101029.03;146691;607;46018;-67
2021/06/08 05:19:43;;;;;;;13.62;6.03;;;;;;;23.44;62.33;101017.31;146691;607;46016;-68
2021/06/08 05:22:23;;;;;;;9.32;6.05;;;;;;;23.46;62.26;101024.28;146695;581;45018;-67
2021/06/08 05:24:55;;;;;;;11.25;5.47;;;;;;;23.47;62.06;101023.31;146691;644;46012;-68
2021/06/08 05:27:30;;;;;;;8.90;5.75;;;;;;;23.41;62.66;101020.25;146696;586;45043;-67
2021/06/08 05:30:01;;;;;;;9.57;5.57;;;;;;;23.44;62.24;101030.72;146691;579;46012;-68
2021/06/08 05:32:32;;;;;;;9.05;5.55;;;;;;;23.43;62.38;101032.56;146695;564;46018;-67
2021/06/08 05:35:03;;;;;;;12.00;6.10;;;;;;;23.37;62.54;101019.63;146691;608;46013;-67
2021/06/08 05:37:42;;;;;;;10.20;5.85;;;;;;;23.42;62.73;101030.00;146695;563;46010;-67
2021/06/08 05:40:13;;;;;;;11.30;5.87;;;;;;;23.42;62.41;101032.69;146690;573;46034;-68
2021/06/08 05:42:46;;;;;;;14.27;5.47;;;;;;;23.35;62.07;101039.47;146691;604;46032;-68
2021/06/08 05:45:17;;;;;;;10.60;5.12;;;;;;;23.27;62.04;101021.31;146692;585;46016;-68
2021/06/08 05:47:48;;;;;;;14.38;5.37;;;;;;;23.31;62.09;101025.47;146693;582;47010;-67
2021/06/08 05:50:20;;;;;;;10.70;5.40;;;;;;;23.28;62.39;101029.25;146691;589;46032;-67
2021/06/08 05:52:55;;;;;;;9.90;5.28;;;;;;;23.26;62.08;101027.66;146694;621;46018;-67
2021/06/08 05:55:27;;;;;;;9.73;4.90;;;;;;;23.27;61.89;101027.53;146692;566;46012;-67
2021/06/08 05:57:58;;;;;;;9.40;4.53;;;;;;;23.36;62.02;101027.78;146694;678;46010;-66
2021/06/08 06:00:30;;;;;;;8.50;4.57;;;;;;;23.51;61.69;101023.94;146691;569;46012;-67
2021/06/08 06:03:02;;;;;;;8.88;4.57;;;;;;;23.64;61.08;101031.84;146694;703;46010;-67
2021/06/08 06:05:37;;;;;;;13.27;4.85;;;;;;;23.78;60.76;101031.62;146692;572;46012;-66
2021/06/08 06:08:08;;;;;;;8.27;4.45;;;;;;;23.87;60.61;101027.37;146696;591;46020;-68
2021/06/08 06:10:40;;;;;;;9.57;4.70;;;;;;;23.97;60.16;101022.16;146689;581;46018;-68
2021/06/08 06:13:29;;;;;;;12.27;4.78;;;;;;;24.12;60.01;101028.12;146692;597;46010;-68
2021/06/08 06:16:01;;;;;;;13.05;4.82;;;;;;;24.28;59.40;101019.69;146691;598;46018;-69
2021/06/08 06:18:33;;;;;;;12.50;4.80;;;;;;;24.31;59.07;101016.75;146691;574;47010;-68
2021/06/08 06:21:05;;;;;;;15.32;5.10;;;;;;;24.38;59.22;101023.31;146690;619;46019;-68
2021/06/08 06:23:36;;;;;;;7.07;4.80;;;;;;;24.37;59.87;101021.59;146695;582;45043;-69
2021/06/08 06:26:08;;;;;;;12.88;5.35;;;;;;;24.35;59.68;101022.72;146692;585;46018;-68
2021/06/08 06:28:41;;;;;;;10.55;5.07;;;;;;;24.25;59.86;101023.47;146694;581;46010;-68
2021/06/08 06:31:12;;;;;;;9.80;5.10;;;;;;;24.16;60.14;101024.22;146690;621;46018;-68
2021/06/08 06:33:47;;;;;;;14.00;5.20;;;;;;;24.12;60.24;101028.12;146693;573;46010;-69
2021/06/08 06:36:20;;;;;;;10.90;4.78;;;;;;;24.07;60.28;101028.50;146691;595;46018;-68
2021/06/08 06:38:52;;;;;;;9.32;4.82;;;;;;;24.15;60.48;101025.19;146694;610;46010;-68
2021/06/08 06:41:25;;;;;;;12.05;5.20;;;;;;;24.27;59.74;101018.81;146690;580;47022;-66
2021/06/08 06:43:56;;;;;;;;;;;;;;;24.32;59.17;101021.16;146696;976;46018;-67
2021/06/08 06:46:31;;;;;;;9.52;4.87;;;;;;;24.42;59.43;101016.72;146696;566;46010;-67
2021/06/08 06:49:04;;;;;;;13.65;4.60;;;;;;;24.52;59.35;101014.13;146695;647;46019;-67
2021/06/08 06:51:36;;;;;;;9.05;4.60;;;;;;;24.63;58.66;101018.62;146688;595;46018;-67
2021/06/08 06:54:10;;;;;;;11.37;4.70;;;;;;;24.78;58.36;101025.44;146695;630;45020;-66
2021/06/08 06:56:44;;;;;;;9.75;4.65;;;;;;;24.88;58.10;101021.97;146692;621;46016;-67
2021/06/08 06:59:16;;;;;;;9.63;4.55;;;;;;;24.97;57.44;101029.25;146691;587;46018;-67
2021/06/08 07:01:48;;;;;;;8.73;4.32;;;;;;;25.01;56.71;101019.94;146691;603;46018;-68
2021/06/08 07:04:24;;;;;;;9.63;4.10;;;;;;;25.05;56.22;101028.62;146694;610;46019;-68
2021/06/08 07:06:56;;;;;;;9.13;4.30;;;;;;;25.06;56.44;101023.09;146690;621;47022;-66
2021/06/08 07:09:28;;;;;;;10.77;4.80;;;;;;;25.08;56.59;101028.34;146695;617;46008;-65
2021/06/08 07:11:59;;;;;;;10.95;4.47;;;;;;;25.04;55.17;101024.22;146692;571;46019;-68
2021/06/08 07:14:31;;;;;;;8.38;4.00;;;;;;;24.96;54.94;101023.03;146694;596;46008;-67
2021/06/08 07:17:52;;;;;;;;;;;;;;;;;;;;;
2021/06/08 07:20:36;;;;;;;15.20;4.60;;;;;;;25.06;54.74;101023.09;146694;635;46018;-65
2021/06/08 07:23:41;;;;;;;9.48;4.45;;;;;;;24.88;54.73;101019.28;146691;588;46010;-65
2021/06/08 07:26:59;;;;;;;8.40;4.10;;;;;;;24.78;54.39;101022.75;146698;606;46008;-66
2021/06/08 07:30:21;;;;;;;;;;;;;;;;;;;;;
2021/06/08 07:34:03;;;;;;;10.10;4.20;;;;;;;24.66;54.85;101029.16;146696;618;47008;-67
2021/06/08 07:37:07;;;;;;;;;;;;;;;;;;;;;
2021/06/08 07:41:08;;;;;;;8.98;3.97;;;;;;;24.91;54.13;101024.41;146696;584;46018;-70
2021/06/08 07:44:04;;;;;;;9.25;3.70;;;;;;;25.16;53.67;101023.19;146691;582;46010;-68
2021/06/08 07:46:50;;;;;;;6.62;3.12;;;;;;;25.31;53.25;101021.84;146695;646;47010;-68
2021/06/08 07:49:36;;;;;;;9.10;4.10;;;;;;;25.46;53.01;101027.78;146696;596;46016;-68
2021/06/08 07:52:24;;;;;;;;;;;;;;;;;;;;;
2021/06/08 07:55:48;;;;;;;7.37;3.60;;;;;;;25.64;51.87;101011.91;146694;615;46018;-68
2021/06/08 07:58:59;;;;;;;7.68;3.62;;;;;;;25.72;51.73;101008.53;146693;639;46018;-69
2021/06/08 08:01:55;;;;;;;7.60;3.62;;;;;;;25.74;51.59;101011.09;146694;584;47904;-69
2021/06/08 08:05:15;;;;;;;6.18;3.60;;;;;;;25.81;50.85;101015.78;146697;592;46008;-68
2021/06/08 08:07:52;;;;;;;7.70;3.30;;;;;;;25.97;50.34;101009.06;146694;571;46018;-69
2021/06/08 08:10:40;;;;;;;7.72;3.60;;;;;;;25.97;50.39;101006.37;146695;589;46019;-69
2021/06/08 08:13:58;;;;;;;7.03;3.25;;;;;;;26.03;50.49;101000.47;146694;697;46018;-68
2021/06/08 08:17:04;;;;;;;;;;;;;;;;;;;;;
2021/06/08 08:20:17;;;;;;;;;;;;;;;;;;;;;
2021/06/08 08:23:07;;;;;;;6.03;3.30;;;;;;;26.29;50.05;101000.00;146696;630;46018;-69
2021/06/08 08:25:49;;;;;;;4.72;3.22;;;;;;;26.27;49.49;101001.94;146692;593;46010;-69
2021/06/08 08:28:59;;;;;;;5.12;3.70;;;;;;;26.22;49.63;100996.13;146698;857;46016;-68
2021/06/08 08:32:00;;;;;;;5.28;3.15;;;;;;;26.39;49.01;100987.38;146691;736;46018;-69
2021/06/08 08:35:06;;;;;;;7.07;3.55;;;;;;;26.49;49.29;100990.09;146698;575;46018;-69
2021/06/08 08:38:02;;;;;;;8.57;3.60;;;;;;;26.55;49.93;100988.69;146690;569;46018;-69
2021/06/08 08:41:13;;;;;;;;;;;;;;;26.82;48.14;100991.56;146703;981;46009;-68
2021/06/08 08:44:45;;;;;;;6.75;3.33;;;;;;;26.82;47.47;100996.09;146693;775;46018;-69
2021/06/08 08:47:50;;;;;;;7.47;2.95;;;;;;;26.83;47.35;100993.25;146693;602;46011;-69
2021/06/08 08:50:31;;;;;;;7.23;3.10;;;;;;;27.07;47.58;101002.72;146690;579;47020;-69
2021/06/08 08:53:22;;;;;;;;;;;;;;;;;;;;;
2021/06/08 08:56:15;;;;;;;7.85;3.42;;;;;;;26.88;46.24;100987.44;146692;742;46019;-69
2021/06/08 08:59:27;;;;;;;8.02;3.22;;;;;;;26.69;46.32;100980.19;146690;738;47010;-69
2021/06/08 09:02:13;;;;;;;5.87;2.87;;;;;;;26.64;47.24;100987.81;146694;675;46018;-69
2021/06/08 09:05:03;;;;;;;7.30;3.20;;;;;;;26.41;47.91;100976.47;146695;614;46018;-69
2021/06/08 09:07:55;;;;;;;11.07;3.90;;;;;;;26.39;47.21;100987.38;146691;565;46018;-69
2021/06/08 09:10:58;;;;;;;;;;;;;;;;;;;;;
2021/06/08 09:13:55;;;;;;;8.20;3.28;;;;;;;26.71;48.36;100988.16;146695;673;46018;-68
2021/06/08 09:16:59;;;;;;;7.35;3.15;;;;;;;26.74;47.82;100986.03;146697;611;46010;-69
2021/06/08 09:19:44;;;;;;;6.68;3.37;;;;;;;26.72;47.88;100985.31;146691;627;46018;-69
2021/06/08 09:23:07;;;;;;;8.00;3.53;;;;;;;26.74;48.00;100972.56;146695;563;46010;-68
2021/06/08 09:25:56;;;;;;;8.98;3.58;;;;;;;27.22;47.10;100980.75;146697;572;46016;-69
2021/06/08 09:28:59;;;;;;;6.68;3.20;;;;;;;27.29;46.49;100974.59;146697;580;46018;-69
2021/06/08 09:32:20;;;;;;;;;;;;;;;;;;;;;
2021/06/08 09:35:17;;;;;;;9.18;3.35;;;;;;;27.35;46.79;100970.47;146693;611;46018;-68
2021/06/08 09:38:10;;;;;;;6.70;3.42;;;;;;;27.52;46.19;100967.03;146688;575;47904;-69
2021/06/08 09:40:58;;;;;;;8.93;3.30;;;;;;;27.64;46.16;100961.44;146693;606;46019;-71
2021/06/08 09:43:37;;;;;;;9.85;4.00;;;;;;;27.57;45.92;100961.22;146687;589;47012;-71
2021/06/08 09:46:53;;;;;;;6.62;3.30;;;;;;;27.23;45.82;100960.84;146696;578;46018;-70
2021/06/08 09:50:00;;;;;;;8.85;3.90;;;;;;;26.93;47.24;100954.66;146690;599;46019;-70
2021/06/08 09:53:37;;;;;;;;;;;;;;;;;;;;;
2021/06/08 09:56:42;;;;;;;8.05;3.67;;;;;;;26.83;48.01;100939.41;146691;622;46019;-72
2021/06/08 09:59:58;;;;;;;10.35;3.72;;;;;;;26.96;48.63;100932.84;146693;585;46018;-70
2021/06/08 10:03:17;;;;;;;7.40;3.55;;;;;;;27.13;48.15;100933.94;146694;599;46013;-71
2021/06/08 10:06:33;;;;;;;7.50;3.83;;;;;;;27.26;47.45;100939.03;146692;640;46010;-70
2021/06/08 10:09:29;;;;;;;7.82;3.65;;;;;;;27.30;47.30;100935.03;146692;576;46018;-71
2021/06/08 10:16:02;;;;;;;7.32;3.95;;;;;;;27.23;46.56;100926.69;146692;597;46012;-71
2021/06/08 10:19:12;;;;;;;;;;;;;;;;;;;;;
2021/06/08 10:22:37;;;;;;;9.07;4.28;;;;;;;27.14;45.91;100911.37;146698;563;46916;-71
2021/06/08 10:25:29;;;;;;;8.55;4.07;;;;;;;27.23;46.27;100912.34;146691;586;46019;-72
2021/06/08 10:28:04;;;;;;;9.85;3.90;;;;;;;27.09;46.82;100906.44;146688;612;46018;-71
2021/06/08 10:30:35;;;;;;;10.45;4.28;;;;;;;27.13;47.12;100923.16;146689;621;46024;-71
2021/06/08 10:33:17;;;;;;;8.45;4.03;;;;;;;27.09;47.48;100916.34;146689;595;46010;-69
2021/06/08 10:35:47;;;;;;;10.57;4.20;;;;;;;27.11;47.25;100915.22;146698;610;46008;-69
2021/06/08 10:38:20;;;;;;;9.60;4.20;;;;;;;27.06;47.19;100908.56;146687;587;47905;-70
2021/06/08 10:40:57;;;;;;;8.10;4.05;;;;;;;26.99;47.90;100909.16;146691;627;46027;-71
2021/06/08 10:43:39;;;;;;;7.00;4.05;;;;;;;27.02;48.25;100906.19;146690;623;46010;-70
2021/06/08 10:46:35;;;;;;;7.95;3.83;;;;;;;26.94;48.31;100902.50;146693;614;46008;-69
2021/06/08 10:49:13;;;;;;;7.53;3.90;;;;;;;26.87;47.89;100893.31;146687;599;46021;-70
2021/06/08 10:52:23;;;;;;;;;;;;;;;;;;;;;
2021/06/08 10:55:41;;;;;;;7.20;4.18;;;;;;;26.87;47.53;100886.06;146689;612;46016;-69
2021/06/08 10:58:16;;;;;;;8.68;3.75;;;;;;;27.01;46.54;100887.44;146695;600;46018;-70
2021/06/08 11:00:51;;;;;;;6.80;3.60;;;;;;;27.08;46.34;100877.81;146690;620;46018;-69
2021/06/08 11:03:56;;;;;;;9.57;4.20;;;;;;;27.00;46.93;100869.59;146693;577;46008;-69
2021/06/08 11:06:52;;;;;;;6.75;4.32;;;;;;;27.00;46.82;100875.81;146687;565;47010;-73
2021/06/08 11:09:33;;;;;;;7.50;3.97;;;;;;;26.95;46.67;100875.41;146693;605;46018;-70
2021/06/08 11:12:32;;;;;;;6.97;3.80;;;;;;;26.85;47.17;100861.13;146689;576;46010;-69
2021/06/08 11:15:24;;;;;;;5.62;3.70;;;;;;;26.96;46.77;100857.41;146698;563;46008;-69
2021/06/08 11:17:55;;;;;;;9.35;3.75;;;;;;;27.05;47.10;100856.53;146689;621;46019;-71
2021/06/08 11:20:29;;;;;;;7.87;3.85;;;;;;;27.00;47.22;100853.44;146695;587;45019;-71
2021/06/08 11:23:05;;;;;;;8.32;3.75;;;;;;;27.06;47.23;100858.22;146692;668;46018;-71
2021/06/08 11:25:53;;;;;;;7.80;3.72;;;;;;;27.07;47.04;100865.31;146691;591;46019;-72
2021/06/08 11:29:00;;;;;;;6.45;3.65;;;;;;;27.14;46.23;100849.41;146691;575;46018;-70
2021/06/08 11:31:50;;;;;;;7.32;3.40;;;;;;;27.04;46.78;100838.69;146690;572;46022;-70
2021/06/08 11:34:27;;;;;;;6.40;3.35;;;;;;;27.19;46.65;100858.75;146687;613;47023;-70
2021/06/08 11:37:01;;;;;;;6.35;3.33;;;;;;;27.17;46.67;100857.19;146690;590;46018;-71
2021/06/08 11:39:50;;;;;;;5.82;3.97;;;;;;;27.20;47.35;100856.88;146689;623;46019;-72
2021/06/08 11:42:44;;;;;;;5.32;3.53;;;;;;;27.13;47.26;100847.72;146691;608;46018;-72
2021/06/08 11:45:37;;;;;;;6.78;3.42;;;;;;;27.14;47.80;100847.56;146690;597;46020;-68
2021/06/08 11:48:55;;;;;;;7.22;3.87;;;;;;;27.08;47.95;100833.81;146697;710;46018;-70
2021/06/08 11:51:42;;;;;;;6.53;3.62;;;;;;;27.31;47.41;100831.59;146689;579;47010;-72
2021/06/08 11:54:49;;;;;;;5.45;3.37;;;;;;;27.37;45.31;100822.97;146691;585;46019;-70
2021/06/08 11:57:40;;;;;;;5.90;3.15;;;;;;;27.30;45.54;100824.53;146689;689;46023;-69
2021/06/08 12:00:13;;;;;;;9.32;3.33;;;;;;;27.42;45.78;100822.50;146693;770;46018;-70
2021/06/08 12:02:52;;;;;;;6.65;3.60;;;;;;;27.43;46.14;100818.81;146687;597;47903;-70
2021/06/08 12:05:25;;;;;;;6.28;3.50;;;;;;;27.49;46.51;100810.13;146690;592;47008;-71
2021/06/08 12:08:11;;;;;;;4.82;3.40;;;;;;;27.50;46.46;100809.09;146690;609;46018;-71
2021/06/08 12:10:44;;;;;;;7.45;3.33;;;;;;;27.52;44.95;100810.66;146694;613;46018;-71
2021/06/08 12:13:17;;;;;;;7.13;3.57;;;;;;;27.59;45.22;100810.06;146687;577;47903;-71
2021/06/08 12:15:51;;;;;;;6.03;3.20;;;;;;;27.62;43.96;100805.19;146691;591;46018;-72
2021/06/08 12:18:36;;;;;;;5.28;3.12;;;;;;;27.71;44.43;100803.44;146687;623;46018;-71
2021/06/08 12:21:19;;;;;;;8.57;3.33;;;;;;;27.73;42.33;100812.22;146690;611;46008;-71
2021/06/08 12:23:50;;;;;;;8.87;3.50;;;;;;;27.78;42.92;100799.13;146690;572;46016;-71
2021/06/08 12:26:25;;;;;;;5.45;2.90;;;;;;;27.83;43.21;100793.25;146697;579;47008;-71
2021/06/08 12:29:14;;;;;;;5.80;3.08;;;;;;;27.91;43.06;100797.91;146688;588;46010;-71
2021/06/08 12:32:09;;;;;;;6.15;2.80;;;;;;;28.01;42.81;100796.00;146697;637;45020;-71
2021/06/08 12:34:40;;;;;;;6.57;2.97;;;;;;;28.19;42.75;100788.72;146689;622;46016;-71
2021/06/08 12:37:22;;;;;;;4.90;3.00;;;;;;;28.27;39.73;100797.88;146695;602;46018;-71
2021/06/08 12:39:59;;;;;;;6.20;2.80;;;;;;;28.25;40.78;100789.94;146689;595;46016;-70
2021/06/08 12:42:49;;;;;;;5.87;2.90;;;;;;;28.27;41.21;100782.56;146697;591;46008;-71
2021/06/08 12:45:23;;;;;;;5.47;3.00;;;;;;;28.23;41.02;100785.72;146686;599;46018;-71
2021/06/08 12:48:24;;;;;;;5.82;2.72;;;;;;;28.16;39.26;100770.16;146689;690;46019;-71
2021/06/08 12:51:00;;;;;;;6.22;2.67;;;;;;;28.19;39.98;100769.84;146693;577;46016;-71
2021/06/08 12:53:35;;;;;;;6.87;2.65;;;;;;;28.19;39.59;100769.84;146695;627;46019;-71
2021/06/08 12:56:13;;;;;;;5.40;2.72;;;;;;;28.19;38.98;100769.00;146692;599;47902;-70
2021/06/08 12:58:49;;;;;;;5.82;2.65;;;;;;;28.17;39.78;100777.25;146698;569;46008;-71
2021/06/08 13:01:23;;;;;;;5.10;2.90;;;;;;;28.10;39.59;100768.06;146689;598;46019;-70
2021/06/08 13:03:59;;;;;;;5.40;2.85;;;;;;;28.12;40.45;100768.78;146694;573;46018;-71
2021/06/08 13:06:30;;;;;;;7.55;3.12;;;;;;;28.18;40.11;100765.44;146689;588;46018;-70
2021/06/08 13:09:01;;;;;;;4.40;2.75;;;;;;;28.16;39.30;100763.94;146692;577;46019;-71
2021/06/08 13:11:40;;;;;;;6.93;2.30;;;;;;;28.15;38.52;100754.97;146688;602;46010;-70
2021/06/08 13:14:20;;;;;;;6.05;2.50;;;;;;;28.18;37.90;100753.81;146686;638;47008;-71
2021/06/08 13:16:55;;;;;;;5.82;2.28;;;;;;;28.20;36.70;100747.25;146688;579;47022;-71
2021/06/08 13:19:31;;;;;;;7.05;2.50;;;;;;;28.31;37.66;100745.28;146693;600;46016;-71
2021/06/08 13:22:40;;;;;;;6.30;2.53;;;;;;;28.27;38.39;100727.72;146689;614;46018;-71
2021/06/08 13:25:16;;;;;;;7.50;2.62;;;;;;;28.39;41.54;100744.50;146691;593;46008;-70
2021/06/08 13:27:54;;;;;;;8.32;3.22;;;;;;;28.27;43.91;100750.16;146692;563;46010;-71
2021/06/08 13:30:36;;;;;;;7.85;2.95;;;;;;;28.18;44.42;100748.41;146691;569;46019;-71
2021/06/08 13:33:25;;;;;;;6.37;3.25;;;;;;;28.15;42.85;100740.62;146689;609;46010;-71
2021/06/08 13:36:06;;;;;;;5.00;2.90;;;;;;;28.17;43.30;100739.47;146692;637;46018;-72
2021/06/08 13:38:47;;;;;;;5.95;2.67;;;;;;;28.22;42.47;100735.47;146689;624;46010;-70
2021/06/08 13:41:21;;;;;;;7.45;2.60;;;;;;;28.22;41.03;100735.47;146692;616;46018;-72